Time;durP1;ratioP1;P1;durP2;ratioP2;P2;SDS_P1;SDS_P2;PMS_P1;PMS_P2;Temp;Humidity;BMP_temperature;BMP_pressure;BME280_temperature;BME280_humidity;BME280_pressure;Samples;Min_cycle;Max_cycle;Signal;HPM_P1;HPM_P2
2021/12/29 00:01:28;;;;;;;32.90;14.00;;;;;;;-0.87;93.73;97986.24;103546;1314;24189;-27
2021/12/29 00:03:54;;;;;;;28.60;13.30;;;;;;;-0.91;93.88;97987.71;103502;1309;24262;-30
2021/12/29 00:06:20;;;;;;;37.50;14.70;;;;;;;-0.86;93.96;97990.88;103647;1298;22838;-27
2021/12/29 00:08:46;;;;;;;43.40;17.70;;;;;;;-0.88;93.72;97988.38;103510;1310;24271;-27
2021/12/29 00:11:12;;;;;;;39.80;15.60;;;;;;;-0.94;93.75;97985.73;103601;1310;24113;-26
2021/12/29 00:13:38;;;;;;;35.00;16.60;;;;;;;-0.94;93.86;97978.08;103510;1310;24450;-26
2021/12/29 00:16:04;;;;;;;52.20;20.00;;;;;;;-0.97;93.98;97975.73;103610;1314;24259;-30
2021/12/29 00:18:31;;;;;;;50.70;19.50;;;;;;;-1.04;94.10;97976.47;103637;1313;24159;-30
2021/12/29 00:20:58;;;;;;;50.50;19.50;;;;;;;-1.09;94.23;97973.57;103615;1313;24178;-31
2021/12/29 00:23:24;;;;;;;34.00;15.20;;;;;;;-1.13;94.02;97973.35;103609;1304;24381;-30
2021/12/29 00:25:49;;;;;;;37.40;15.50;;;;;;;-1.18;94.48;97971.52;103550;1313;24253;-30
2021/12/29 00:28:15;;;;;;;36.00;17.00;;;;;;;-1.17;94.33;97973.38;103457;1310;22595;-27
2021/12/29 00:30:42;;;;;;;40.00;17.00;;;;;;;-1.18;94.56;97972.45;103564;1304;24209;-31
2021/12/29 00:33:08;;;;;;;36.30;15.50;;;;;;;-1.15;94.70;97969.82;103490;1313;24354;-30
2021/12/29 00:35:35;;;;;;;39.80;17.30;;;;;;;-1.09;94.56;97973.25;103601;1310;24283;-30
2021/12/29 00:38:03;;;;;;;45.70;18.90;;;;;;;-1.06;94.72;97976.95;103517;1310;24639;-27
2021/12/29 00:40:29;;;;;;;39.70;17.30;;;;;;;-1.05;94.81;97978.60;103623;1314;24175;-30
2021/12/29 00:42:56;;;;;;;32.50;14.60;;;;;;;-1.05;94.94;97980.08;103592;1317;24277;-31
2021/12/29 00:45:21;;;;;;;35.60;14.90;;;;;;;-1.03;95.01;97983.35;103584;1310;24196;-27
2021/12/29 00:47:49;;;;;;;32.20;14.00;;;;;;;-0.97;95.11;97985.55;103614;1317;22474;-31
2021/12/29 00:50:16;;;;;;;39.80;17.10;;;;;;;-0.90;95.06;97985.21;103571;1314;24307;-30
2021/12/29 00:52:44;;;;;;;38.60;17.10;;;;;;;-0.89;95.05;97986.44;103606;1306;24268;-31
2021/12/29 00:55:10;;;;;;;29.30;13.30;;;;;;;-0.84;95.13;97987.95;103552;1314;25177;-27
2021/12/29 00:57:36;;;;;;;33.30;16.40;;;;;;;-0.80;95.21;97992.60;103587;1310;24147;-31
2021/12/29 01:00:06;;;;;;;35.20;12.90;;;;;;;-0.79;95.39;97993.03;103514;1301;22594;-30
2021/12/29 01:02:32;;;;;;;30.90;14.60;;;;;;;-0.67;95.33;97994.79;103568;1314;22579;-31
2021/12/29 01:04:58;;;;;;;25.90;10.40;;;;;;;-0.61;95.32;97992.86;103610;1313;24158;-31
2021/12/29 01:07:24;;;;;;;25.30;11.20;;;;;;;-0.56;95.41;97996.21;103465;1310;24217;-31
2021/12/29 01:09:49;;;;;;;26.50;11.80;;;;;;;-0.56;95.34;97994.23;103600;1314;24175;-31
2021/12/29 01:12:15;;;;;;;21.10;12.00;;;;;;;-0.42;95.26;97995.81;103605;1310;24246;-27
2021/12/29 01:14:44;;;;;;;28.80;11.70;;;;;;;-0.39;95.40;97995.33;103611;1313;24245;-27
2021/12/29 01:17:10;;;;;;;25.00;12.50;;;;;;;-0.44;95.50;97994.66;103675;1304;24214;-31
2021/12/29 01:19:36;;;;;;;25.40;9.50;;;;;;;-0.45;95.70;97994.33;103510;1313;22705;-27
2021/12/29 01:22:02;;;;;;;25.40;11.00;;;;;;;-0.38;95.77;97997.86;103640;1313;22586;-30
2021/12/29 01:24:30;;;;;;;19.70;8.30;;;;;;;-0.34;95.71;97994.45;103571;1313;24320;-30
2021/12/29 01:26:56;;;;;;;16.90;8.30;;;;;;;-0.36;95.79;97994.23;103620;1314;22801;-31
2021/12/29 01:29:22;;;;;;;19.70;9.50;;;;;;;-0.31;95.82;97994.05;103536;1314;24233;-27
2021/12/29 01:31:48;;;;;;;16.00;7.80;;;;;;;-0.28;95.93;97993.10;103457;1313;24279;-31
2021/12/29 01:34:14;;;;;;;14.10;8.40;;;;;;;-0.25;95.98;97993.44;103479;1309;24243;-31
2021/12/29 01:36:40;;;;;;;13.40;7.80;;;;;;;-0.18;96.04;97994.55;103593;1313;24127;-27
2021/12/29 01:39:08;;;;;;;10.20;6.30;;;;;;;-0.24;95.97;97992.48;103619;1314;24408;-30
2021/12/29 01:41:34;;;;;;;8.30;5.90;;;;;;;-0.27;96.06;97989.97;103569;1313;24275;-30
2021/12/29 01:44:00;;;;;;;10.60;5.10;;;;;;;-0.19;96.26;97989.73;103606;1313;24318;-27
2021/12/29 01:46:26;;;;;;;9.90;6.10;;;;;;;-0.13;96.06;97988.90;103492;1313;24262;-27
2021/12/29 01:48:52;;;;;;;6.30;4.40;;;;;;;-0.12;96.06;97989.86;103537;1314;24150;-31
2021/12/29 01:51:19;;;;;;;9.20;3.70;;;;;;;-0.04;95.95;97993.00;103560;1310;24213;-27
2021/12/29 01:53:50;;;;;;;9.20;3.80;;;;;;;-0.05;95.79;97994.20;103608;1307;22647;-30
2021/12/29 01:56:16;;;;;;;3.60;2.70;;;;;;;0.03;95.66;97993.87;103551;1314;24255;-27
2021/12/29 01:58:42;;;;;;;4.40;2.20;;;;;;;0.00;95.47;97988.48;103518;1301;22733;-27
2021/12/29 02:01:08;;;;;;;6.70;2.50;;;;;;;0.01;95.27;97988.66;103484;1313;24365;-27
2021/12/29 02:03:34;;;;;;;3.90;2.20;;;;;;;0.01;95.34;97992.32;103544;1313;24246;-27
2021/12/29 02:06:00;;;;;;;3.20;2.50;;;;;;;0.03;95.34;97987.48;103551;1304;24151;-27
2021/12/29 02:08:26;;;;;;;9.40;2.10;;;;;;;0.03;95.48;97989.68;103593;1304;24132;-31
2021/12/29 02:10:53;;;;;;;4.00;1.90;;;;;;;0.01;95.34;97992.48;103585;1304;24341;-31
2021/12/29 02:13:19;;;;;;;4.20;2.40;;;;;;;0.08;95.06;97995.65;103577;1310;24137;-27
2021/12/29 02:15:45;;;;;;;4.70;1.90;;;;;;;0.02;95.22;97993.80;103592;1314;24225;-28
2021/12/29 02:18:14;;;;;;;4.30;1.50;;;;;;;0.01;95.17;97994.04;103573;1302;22450;-31
2021/12/29 02:20:44;;;;;;;3.20;1.70;;;;;;;0.04;95.11;97990.90;103557;1313;24152;-30
2021/12/29 02:23:14;;;;;;;5.20;2.70;;;;;;;0.05;95.13;97991.88;103597;1302;22481;-27
2021/12/29 02:28:10;;;;;;;2.20;1.70;;;;;;;0.12;94.99;97987.27;103488;1313;24275;-31
2021/12/29 02:30:35;;;;;;;4.80;2.60;;;;;;;0.16;94.94;97983.98;103580;1313;24352;-27
2021/12/29 02:33:03;;;;;;;4.10;2.00;;;;;;;0.13;95.22;97988.16;103533;1313;24287;-31
2021/12/29 02:35:29;;;;;;;3.60;2.00;;;;;;;0.17;95.15;97987.10;103784;1313;22781;-31
2021/12/29 02:37:55;;;;;;;2.20;1.60;;;;;;;0.14;95.02;97993.87;103613;1314;24148;-30
2021/12/29 02:40:21;;;;;;;3.90;2.20;;;;;;;0.12;94.66;97994.16;103574;1316;24380;-27
2021/12/29 02:42:47;;;;;;;3.20;2.20;;;;;;;0.10;94.76;97991.31;103568;1304;24113;-31
2021/12/29 02:45:15;;;;;;;5.70;2.00;;;;;;;0.11;94.76;97992.32;103465;1314;24144;-27
2021/12/29 02:47:41;;;;;;;3.60;1.50;;;;;;;0.12;94.76;97993.77;103833;1312;24148;-27
2021/12/29 02:50:08;;;;;;;5.00;2.20;;;;;;;0.17;95.03;97994.43;103549;1314;22475;-27
2021/12/29 02:52:35;;;;;;;5.80;1.80;;;;;;;0.15;95.06;97993.48;103612;1314;24242;-31
2021/12/29 02:55:01;;;;;;;3.40;2.20;;;;;;;0.18;94.98;97996.80;103880;1312;24180;-27
2021/12/29 02:57:27;;;;;;;2.50;1.60;;;;;;;0.22;95.01;97996.25;103555;1313;24129;-31
2021/12/29 02:59:53;;;;;;;2.60;1.70;;;;;;;0.15;94.97;97999.05;103625;1310;22574;-31
2021/12/29 03:02:20;;;;;;;2.70;1.90;;;;;;;0.17;94.80;98005.92;103767;1305;24394;-31
2021/12/29 03:04:46;;;;;;;3.00;1.60;;;;;;;0.21;94.92;98005.09;103640;1310;24359;-27
2021/12/29 03:07:12;;;;;;;1.70;1.30;;;;;;;0.24;95.04;98008.66;103591;1313;24250;-30
2021/12/29 03:09:38;;;;;;;1.60;1.20;;;;;;;0.28;95.14;98007.60;103586;1302;22594;-31
2021/12/29 03:12:04;;;;;;;4.00;2.00;;;;;;;0.26;94.84;98012.19;103858;1312;24316;-27
2021/12/29 03:14:31;;;;;;;2.50;1.40;;;;;;;0.30;95.10;98009.02;103573;1314;24243;-27
2021/12/29 03:16:57;;;;;;;2.60;1.70;;;;;;;0.29;95.21;98007.73;103816;1312;26008;-30
2021/12/29 03:19:22;;;;;;;2.30;1.80;;;;;;;0.30;95.15;98010.48;103586;1313;24354;-30
2021/12/29 03:21:50;;;;;;;2.10;1.70;;;;;;;0.31;95.20;98011.89;103824;1305;24261;-31
2021/12/29 03:24:18;;;;;;;1.90;1.30;;;;;;;0.28;94.82;98010.31;103621;1314;24182;-30
2021/12/29 03:26:44;;;;;;;2.40;1.90;;;;;;;0.27;94.96;98013.42;103631;1302;22784;-27
2021/12/29 03:29:10;;;;;;;2.00;1.90;;;;;;;0.28;94.84;98018.14;103774;1312;24245;-31
2021/12/29 03:31:39;;;;;;;4.10;1.30;;;;;;;0.30;94.89;98024.44;103616;1314;24219;-27
2021/12/29 03:34:05;;;;;;;4.70;2.00;;;;;;;0.28;94.77;98026.39;103621;1314;24167;-31
2021/12/29 03:36:31;;;;;;;5.50;3.00;;;;;;;0.26;94.68;98026.11;103759;1312;24144;-30
2021/12/29 03:38:57;;;;;;;3.00;1.80;;;;;;;0.30;94.99;98029.13;103575;1310;24251;-30
2021/12/29 03:41:24;;;;;;;2.50;2.00;;;;;;;0.35;95.22;98027.68;103597;1313;22453;-31
2021/12/29 03:43:50;;;;;;;2.70;1.80;;;;;;;0.29;94.88;98026.22;103620;1308;24448;-31
2021/12/29 03:46:16;;;;;;;2.10;1.30;;;;;;;0.23;94.56;98026.55;103708;1316;24177;-31
2021/12/29 03:48:44;;;;;;;4.90;2.00;;;;;;;0.30;94.87;98026.33;103681;1310;24221;-27
2021/12/29 03:51:10;;;;;;;2.80;2.30;;;;;;;0.30;94.97;98028.30;103771;1314;26188;-27
2021/12/29 03:53:37;;;;;;;5.50;2.00;;;;;;;0.33;94.74;98030.91;103749;1314;22488;-27
2021/12/29 03:56:04;;;;;;;4.40;2.20;;;;;;;0.28;94.62;98031.31;103711;1305;24183;-31
2021/12/29 03:58:30;;;;;;;2.60;2.00;;;;;;;0.22;94.32;98032.96;103330;1313;553165;-30
2021/12/29 04:00:58;;;;;;;1.90;1.40;;;;;;;0.29;94.98;98036.98;103712;1310;24153;-27
2021/12/29 04:03:24;;;;;;;4.30;2.10;;;;;;;0.35;94.95;98039.91;103756;1315;24320;-31
2021/12/29 04:05:50;;;;;;;2.50;1.60;;;;;;;0.34;94.79;98044.70;103747;1312;23776;-31
2021/12/29 04:08:16;;;;;;;2.40;1.80;;;;;;;0.36;95.03;98046.42;103755;1312;22732;-29
2021/12/29 04:10:41;;;;;;;2.50;1.90;;;;;;;0.40;94.90;98044.61;103717;1312;24284;-30
2021/12/29 04:13:07;;;;;;;3.50;1.90;;;;;;;0.39;94.49;98046.25;103758;1312;24189;-27
2021/12/29 04:15:34;;;;;;;3.00;1.90;;;;;;;0.38;94.76;98047.25;103718;1310;24160;-31
2021/12/29 04:18:03;;;;;;;4.30;2.80;;;;;;;0.31;94.69;98043.31;103682;1301;22570;-30
2021/12/29 04:23:02;;;;;;;2.70;2.00;;;;;;;0.30;94.96;98045.30;103741;1314;25035;-27
2021/12/29 04:25:29;;;;;;;4.90;3.70;;;;;;;0.31;95.16;98048.27;103518;1314;24279;-30
2021/12/29 04:27:56;;;;;;;14.20;4.40;;;;;;;0.32;95.36;98050.93;103700;1313;22514;-31
2021/12/29 04:30:22;;;;;;;13.40;5.40;;;;;;;0.27;95.52;98052.88;103722;1316;23854;-31
2021/12/29 04:32:50;;;;;;;16.70;7.40;;;;;;;0.30;95.41;98054.31;103688;1314;24206;-27
2021/12/29 04:35:16;;;;;;;7.40;4.80;;;;;;;0.26;95.48;98058.10;103702;1311;24317;-31
2021/12/29 04:37:42;;;;;;;4.60;2.80;;;;;;;0.21;95.85;98061.80;103703;1314;24397;-27
2021/12/29 04:40:08;;;;;;;5.70;3.40;;;;;;;0.26;96.09;98061.92;103745;1314;22493;-27
2021/12/29 04:42:34;;;;;;;5.40;3.80;;;;;;;0.28;95.98;98062.65;103721;1311;24316;-27
2021/12/29 04:45:00;;;;;;;11.10;6.70;;;;;;;0.30;95.93;98065.92;103690;1311;24209;-30
2021/12/29 04:47:29;;;;;;;9.80;5.10;;;;;;;0.27;95.80;98060.83;103644;1312;24156;-31
2021/12/29 04:49:59;;;;;;;4.00;2.80;;;;;;;0.25;95.97;98065.03;103732;1313;22698;-31
2021/12/29 04:52:25;;;;;;;7.50;4.60;;;;;;;0.33;95.98;98065.92;103757;1312;23764;-31
2021/12/29 04:54:51;;;;;;;5.10;3.90;;;;;;;0.30;95.86;98063.16;103700;1308;24182;-31
2021/12/29 04:57:18;;;;;;;8.20;4.30;;;;;;;0.25;95.91;98066.12;103716;1313;24133;-26
2021/12/29 04:59:44;;;;;;;4.00;2.80;;;;;;;0.22;95.84;98070.08;103804;1309;24224;-27
2021/12/29 05:02:10;;;;;;;6.90;3.00;;;;;;;0.27;95.92;98072.41;103720;1313;24186;-27
2021/12/29 05:04:45;;;;;;;5.60;4.10;;;;;;;0.36;96.10;98070.22;103699;1315;24230;-31
2021/12/29 05:09:40;;;;;;;3.80;2.80;;;;;;;0.42;96.10;98079.23;103727;1315;22926;-27
2021/12/29 05:12:07;;;;;;;5.10;2.40;;;;;;;0.37;95.98;98079.30;103717;1298;22463;-27
2021/12/29 05:14:33;;;;;;;4.50;2.70;;;;;;;0.36;95.94;98082.70;103513;1307;24308;-27
2021/12/29 05:16:58;;;;;;;8.50;3.70;;;;;;;0.40;96.26;98086.02;103711;1313;24160;-27
2021/12/29 05:19:24;;;;;;;3.90;2.70;;;;;;;0.36;95.79;98092.73;103823;1314;24132;-29
2021/12/29 05:21:50;;;;;;;5.20;3.20;;;;;;;0.37;95.95;98095.45;103673;1313;24290;-28
2021/12/29 05:24:16;;;;;;;5.90;3.00;;;;;;;0.38;96.02;98100.80;103694;1313;22796;-27
2021/12/29 05:26:42;;;;;;;4.60;2.20;;;;;;;0.40;95.97;98099.88;103741;1312;24178;-27
2021/12/29 05:29:08;;;;;;;4.60;2.50;;;;;;;0.42;95.88;98098.22;103726;1314;24242;-27
2021/12/29 05:31:34;;;;;;;2.90;2.40;;;;;;;0.40;95.93;98104.81;103761;1314;24113;-31
2021/12/29 05:34:00;;;;;;;5.60;3.00;;;;;;;0.47;96.08;98108.79;103671;1314;24347;-31
2021/12/29 05:36:25;;;;;;;4.70;3.20;;;;;;;0.49;96.05;98106.15;103726;1312;24265;-31
2021/12/29 05:38:53;;;;;;;3.60;2.90;;;;;;;0.48;95.61;98101.87;103732;1312;24211;-29
2021/12/29 05:41:19;;;;;;;4.20;2.70;;;;;;;0.45;95.65;98105.13;103712;1312;24116;-30
2021/12/29 05:43:45;;;;;;;4.90;3.50;;;;;;;0.44;95.41;98107.86;103696;1314;24232;-31
2021/12/29 05:46:11;;;;;;;7.70;3.00;;;;;;;0.48;95.29;98108.07;103688;1310;24242;-32
2021/12/29 05:48:37;;;;;;;5.00;2.70;;;;;;;0.53;95.29;98112.65;103693;1310;24256;-27
2021/12/29 05:51:03;;;;;;;9.90;3.60;;;;;;;0.47;95.18;98117.80;103670;1312;24159;-31
2021/12/29 05:53:29;;;;;;;3.30;2.40;;;;;;;0.55;95.68;98116.15;103750;1310;24121;-27
2021/12/29 05:55:56;;;;;;;4.80;2.90;;;;;;;0.51;95.58;98117.58;103775;1312;24157;-27
2021/12/29 06:05:44;;;;;;;4.60;2.60;;;;;;;0.54;95.08;98121.34;103682;1312;22663;-27
2021/12/29 06:08:10;;;;;;;5.40;3.10;;;;;;;0.57;94.99;98132.23;103703;1312;22475;-31
2021/12/29 06:10:36;;;;;;;5.50;3.50;;;;;;;0.57;94.88;98132.23;103445;1316;24314;-26
2021/12/29 06:13:02;;;;;;;7.10;4.40;;;;;;;0.57;94.72;98140.14;103766;1311;24168;-29
2021/12/29 06:15:28;;;;;;;4.70;3.80;;;;;;;0.63;95.07;98137.70;103709;1312;24150;-26
2021/12/29 06:17:54;;;;;;;11.70;7.20;;;;;;;0.65;94.84;98135.64;103754;1312;22442;-26
2021/12/29 06:20:20;;;;;;;16.10;6.90;;;;;;;0.66;94.92;98140.38;103710;1314;24144;-30
2021/12/29 06:22:46;;;;;;;6.50;4.30;;;;;;;0.72;95.14;98141.89;103731;1312;24176;-26
2021/12/29 06:25:14;;;;;;;5.80;3.50;;;;;;;0.64;94.67;98141.35;103735;1313;24287;-27
2021/12/29 06:27:40;;;;;;;5.10;3.90;;;;;;;0.66;94.83;98138.71;103733;1314;24293;-31
2021/12/29 06:30:08;;;;;;;6.90;3.10;;;;;;;0.68;95.01;98138.46;103668;1316;24969;-27
2021/12/29 06:32:34;;;;;;;9.80;3.70;;;;;;;0.59;94.29;98144.70;103706;1308;24134;-26
2021/12/29 06:35:00;;;;;;;7.10;3.90;;;;;;;0.61;94.37;98140.96;103623;1313;24423;-27
2021/12/29 06:37:26;;;;;;;9.40;5.40;;;;;;;0.60;94.50;98152.89;103665;1314;23820;-30
2021/12/29 06:39:52;;;;;;;8.10;3.20;;;;;;;0.62;94.68;98156.85;103695;1314;22557;-30
2021/12/29 06:42:18;;;;;;;7.70;3.90;;;;;;;0.65;95.01;98163.06;103689;1313;24346;-26
2021/12/29 06:44:45;;;;;;;10.40;4.80;;;;;;;0.64;94.58;98167.02;103702;1312;24225;-31
2021/12/29 06:47:10;;;;;;;7.40;3.90;;;;;;;0.64;94.27;98175.01;103706;1312;24261;-31
2021/12/29 06:49:37;;;;;;;6.60;3.40;;;;;;;0.64;94.28;98180.13;103683;1314;24231;-30
2021/12/29 06:52:03;;;;;;;6.70;3.90;;;;;;;0.66;94.17;98179.54;103665;1308;24246;-30
2021/12/29 06:54:29;;;;;;;3.90;3.20;;;;;;;0.70;94.42;98184.11;103700;1300;24184;-31
2021/12/29 06:56:55;;;;;;;4.50;3.00;;;;;;;0.70;94.42;98182.61;103733;1314;25766;-30
2021/12/29 06:59:21;;;;;;;7.30;3.20;;;;;;;0.72;94.63;98185.41;103747;1312;24226;-26
2021/12/29 07:01:47;;;;;;;5.40;3.30;;;;;;;0.76;94.86;98182.89;103660;1316;22469;-30
2021/12/29 07:04:13;;;;;;;15.70;5.20;;;;;;;0.72;94.84;98187.55;103683;1312;23315;-30
2021/12/29 07:06:39;;;;;;;6.00;3.50;;;;;;;0.66;94.49;98191.33;103743;1314;24181;-31
2021/12/29 07:09:05;;;;;;;5.70;3.40;;;;;;;0.60;94.12;98190.42;103659;1312;24351;-29
2021/12/29 07:11:31;;;;;;;6.30;4.20;;;;;;;0.56;94.05;98193.44;103705;1312;24159;-26
2021/12/29 07:14:00;;;;;;;6.90;4.40;;;;;;;0.54;94.15;98198.46;103702;1316;24169;-31
2021/12/29 07:16:25;;;;;;;10.40;4.50;;;;;;;0.52;94.23;98201.13;103755;1312;22656;-27
2021/12/29 07:18:51;;;;;;;6.00;3.70;;;;;;;0.54;94.77;98208.52;103692;1314;24250;-30
2021/12/29 07:21:17;;;;;;;4.90;3.30;;;;;;;0.52;94.99;98209.91;103723;1312;24301;-26
2021/12/29 07:23:43;;;;;;;10.10;2.50;;;;;;;0.59;95.14;98216.42;103683;1315;24136;-30
2021/12/29 07:26:09;;;;;;;5.70;2.90;;;;;;;0.56;94.78;98219.52;103772;1311;22461;-29
2021/12/29 07:28:35;;;;;;;8.00;4.10;;;;;;;0.60;95.07;98222.64;103668;1312;24272;-25
2021/12/29 07:31:00;;;;;;;9.20;4.40;;;;;;;0.63;95.19;98227.59;103710;1312;24120;-29
2021/12/29 07:33:26;;;;;;;8.90;5.10;;;;;;;0.69;95.21;98233.61;103736;1312;24162;-25
2021/12/29 07:35:52;;;;;;;49.30;13.70;;;;;;;0.77;95.07;98232.67;103687;1312;22723;-30
2021/12/29 07:38:18;;;;;;;60.00;16.40;;;;;;;0.81;95.48;98231.16;103684;1316;24159;-26
2021/12/29 07:40:44;;;;;;;70.60;24.10;;;;;;;0.81;95.46;98236.27;103637;1305;24228;-25
2021/12/29 07:43:10;;;;;;;19.50;8.90;;;;;;;0.84;95.69;98236.15;103647;1311;24159;-26
2021/12/29 07:45:36;;;;;;;16.40;8.90;;;;;;;0.88;95.58;98238.08;103692;1313;24399;-31
2021/12/29 07:48:04;;;;;;;15.70;6.20;;;;;;;0.88;94.95;98245.14;103722;1306;24110;-26
2021/12/29 07:50:30;;;;;;;8.90;5.00;;;;;;;0.95;95.08;98246.02;103729;1313;25369;-31
2021/12/29 07:52:58;;;;;;;8.90;4.40;;;;;;;1.05;95.21;98247.24;103665;1317;22550;-27
2021/12/29 07:55:24;;;;;;;11.40;5.90;;;;;;;1.06;95.32;98252.10;103673;1312;24223;-26
2021/12/29 07:57:49;;;;;;;8.20;4.80;;;;;;;1.13;95.48;98252.27;103690;1314;24136;-29
2021/12/29 08:00:16;;;;;;;12.20;5.40;;;;;;;1.15;95.46;98257.65;103682;1311;24240;-27
2021/12/29 08:02:44;;;;;;;9.90;5.20;;;;;;;1.16;95.24;98259.61;103705;1315;24251;-26
2021/12/29 08:05:10;;;;;;;10.30;5.80;;;;;;;1.21;95.68;98260.57;103569;1314;22557;-30
2021/12/29 08:07:36;;;;;;;16.40;6.40;;;;;;;1.15;94.81;98255.20;103757;1316;24173;-26
2021/12/29 08:10:03;;;;;;;13.20;5.20;;;;;;;1.20;95.21;98257.34;103710;1314;24142;-30
2021/12/29 08:12:29;;;;;;;13.30;5.70;;;;;;;1.27;95.28;98263.02;103709;1315;24307;-26
2021/12/29 08:14:55;;;;;;;11.00;5.50;;;;;;;1.24;95.17;98277.14;103721;1312;24148;-27
2021/12/29 08:17:21;;;;;;;12.00;5.80;;;;;;;1.35;95.05;98280.86;103681;1315;24184;-26
2021/12/29 08:19:50;;;;;;;8.60;5.00;;;;;;;1.38;95.00;98280.09;103704;1316;24120;-30
2021/12/29 08:22:16;;;;;;;11.00;7.60;;;;;;;1.34;94.55;98284.35;103713;1310;24199;-30
2021/12/29 08:24:42;;;;;;;11.90;7.30;;;;;;;1.32;94.25;98286.70;103723;1312;24356;-26
2021/12/29 08:27:09;;;;;;;11.40;6.20;;;;;;;1.21;94.27;98282.78;103700;1312;24151;-26
2021/12/29 08:29:35;;;;;;;9.60;5.30;;;;;;;1.20;94.38;98283.41;103730;1316;24187;-26
2021/12/29 08:32:01;;;;;;;11.20;5.80;;;;;;;1.26;94.12;98286.96;103636;1310;24133;-30
2021/12/29 08:34:27;;;;;;;10.20;5.90;;;;;;;1.29;94.01;98297.89;103753;1312;22791;-26
2021/12/29 08:36:53;;;;;;;9.80;5.40;;;;;;;1.33;93.66;98300.52;103792;1313;24206;-30
2021/12/29 08:39:19;;;;;;;8.90;4.40;;;;;;;1.27;93.62;98306.20;103683;1312;22439;-27
2021/12/29 08:41:46;;;;;;;9.80;3.80;;;;;;;1.27;93.88;98311.88;103787;1314;24249;-30
2021/12/29 08:44:12;;;;;;;8.60;4.60;;;;;;;1.29;94.13;98318.71;103669;1315;24150;-30
2021/12/29 08:46:38;;;;;;;9.20;5.40;;;;;;;1.35;94.11;98317.55;103755;1312;24121;-30
2021/12/29 08:49:04;;;;;;;9.90;5.30;;;;;;;1.44;93.95;98324.03;103676;1316;24260;-29
2021/12/29 08:51:30;;;;;;;13.70;5.70;;;;;;;1.52;94.33;98324.10;103655;1312;24258;-26
2021/12/29 08:53:57;;;;;;;11.40;6.90;;;;;;;1.57;94.40;98327.38;103559;1313;24306;-30
2021/12/29 08:56:24;;;;;;;14.20;6.10;;;;;;;1.63;94.28;98327.05;103721;1314;22462;-26
2021/12/29 08:58:53;;;;;;;12.50;6.70;;;;;;;1.68;93.93;98324.95;103720;1308;24222;-26
2021/12/29 09:01:19;;;;;;;19.90;7.20;;;;;;;1.60;93.90;98322.44;103686;1314;24354;-26
2021/12/29 09:03:47;;;;;;;10.20;6.60;;;;;;;1.62;94.14;98324.66;103634;1313;24148;-30
2021/12/29 09:06:12;;;;;;;8.30;4.90;;;;;;;1.63;93.61;98322.34;103679;1316;23995;-26
2021/12/29 09:08:38;;;;;;;13.50;5.50;;;;;;;1.65;93.38;98325.10;103706;1316;22460;-28
2021/12/29 09:11:04;;;;;;;9.70;6.50;;;;;;;1.69;93.25;98328.20;103731;1316;24272;-30
2021/12/29 09:13:30;;;;;;;11.00;6.20;;;;;;;1.74;93.43;98332.73;103667;1314;24167;-30
2021/12/29 09:15:57;;;;;;;11.80;4.80;;;;;;;1.78;92.96;98336.77;103693;1310;24132;-29
2021/12/29 09:18:24;;;;;;;8.00;5.50;;;;;;;1.81;93.09;98339.96;103744;1314;24226;-30
2021/12/29 09:20:51;;;;;;;12.30;8.00;;;;;;;1.85;93.47;98339.70;103758;1313;24144;-27
2021/12/29 09:23:17;;;;;;;15.90;5.70;;;;;;;1.91;93.72;98344.20;103681;1313;24197;-26
2021/12/29 09:25:43;;;;;;;11.10;5.80;;;;;;;1.89;93.76;98347.98;103693;1314;24259;-26
2021/12/29 09:28:10;;;;;;;14.20;6.40;;;;;;;1.86;93.95;98352.66;103753;1307;24154;-26
2021/12/29 09:30:37;;;;;;;12.70;5.70;;;;;;;1.77;93.73;98353.05;103697;1315;22769;-26
2021/12/29 09:33:03;;;;;;;10.90;4.60;;;;;;;1.79;93.87;98359.92;103750;1312;24274;-30
2021/12/29 09:35:30;;;;;;;10.10;6.00;;;;;;;1.74;93.44;98358.20;103770;1314;24152;-30
2021/12/29 09:37:56;;;;;;;10.20;7.20;;;;;;;1.75;93.59;98354.86;103752;1312;24302;-29
2021/12/29 09:40:23;;;;;;;12.30;8.80;;;;;;;1.74;92.82;98357.55;103733;1312;24280;-26
2021/12/29 09:42:50;;;;;;;17.70;12.00;;;;;;;1.77;93.22;98356.29;103747;1316;24223;-26
2021/12/29 09:45:16;;;;;;;27.30;13.30;;;;;;;1.76;92.74;98353.01;103570;1316;24266;-30
2021/12/29 09:47:42;;;;;;;26.10;16.50;;;;;;;1.74;91.89;98353.23;103770;1310;24210;-26
2021/12/29 09:50:10;;;;;;;97.70;39.80;;;;;;;1.76;92.00;98347.89;103726;1312;23849;-26
2021/12/29 09:52:36;;;;;;;89.90;46.60;;;;;;;1.78;92.21;98348.37;103786;1306;24246;-30
2021/12/29 09:55:04;;;;;;;73.40;43.70;;;;;;;1.78;92.63;98344.54;103737;1316;22453;-30
2021/12/29 09:57:32;;;;;;;93.70;58.00;;;;;;;1.80;92.31;98340.57;103551;1312;24308;-26
2021/12/29 10:00:00;;;;;;;101.70;59.80;;;;;;;1.81;92.16;98339.73;103723;1314;24240;-30
2021/12/29 10:02:27;;;;;;;242.00;143.20;;;;;;;1.84;92.17;98342.57;103736;1312;24176;-30
2021/12/29 10:04:56;;;;;;;103.90;62.30;;;;;;;1.82;91.83;98347.02;103741;1312;24231;-26
2021/12/29 10:07:22;;;;;;;119.30;72.00;;;;;;;1.82;91.27;98345.66;103574;1316;23867;-26
2021/12/29 10:09:48;;;;;;;140.90;82.40;;;;;;;1.89;91.55;98343.17;103731;1314;22461;-29
2021/12/29 10:12:19;;;;;;;68.60;40.10;;;;;;;2.00;92.36;98346.34;103768;1314;26290;-26
2021/12/29 10:14:48;;;;;;;20.00;11.50;;;;;;;2.08;93.14;98346.69;103701;1315;25274;-27
2021/12/29 10:17:14;;;;;;;13.70;7.70;;;;;;;2.14;93.61;98344.62;103688;1304;24279;-30
2021/12/29 10:19:40;;;;;;;17.90;10.10;;;;;;;2.20;93.84;98345.21;103741;1311;24248;-26
2021/12/29 10:22:06;;;;;;;19.50;9.90;;;;;;;2.23;93.80;98348.61;103705;1312;24301;-27
2021/12/29 10:24:32;;;;;;;20.20;9.70;;;;;;;2.22;93.41;98351.89;103733;1310;24244;-29
2021/12/29 10:26:58;;;;;;;21.00;11.30;;;;;;;2.21;93.22;98350.94;103510;1312;24132;-29
2021/12/29 10:29:24;;;;;;;27.20;14.20;;;;;;;2.15;93.13;98352.52;103718;1312;22457;-28
2021/12/29 10:31:52;;;;;;;19.20;10.50;;;;;;;2.16;93.43;98355.45;103743;1312;24340;-25
2021/12/29 10:34:20;;;;;;;26.90;11.70;;;;;;;2.17;93.36;98358.13;103732;1313;24152;-25
2021/12/29 10:36:49;;;;;;;20.40;9.00;;;;;;;2.26;93.42;98356.58;103728;1305;22820;-25
2021/12/29 10:39:18;;;;;;;25.90;11.10;;;;;;;2.30;93.00;98358.22;103737;1314;22544;-26
2021/12/29 10:41:46;;;;;;;29.20;11.20;;;;;;;2.32;93.24;98362.23;103731;1313;23830;-29
2021/12/29 10:44:13;;;;;;;22.80;9.70;;;;;;;2.41;93.21;98361.15;103713;1314;24146;-31
2021/12/29 10:46:39;;;;;;;12.30;6.80;;;;;;;2.49;92.52;98369.08;103757;1312;24147;-30
2021/12/29 10:49:07;;;;;;;17.30;7.60;;;;;;;2.65;92.92;98369.85;103643;1315;24253;-28
2021/12/29 10:51:36;;;;;;;17.80;8.30;;;;;;;2.63;91.97;98373.86;103713;1315;22499;-29
2021/12/29 10:54:05;;;;;;;14.20;7.60;;;;;;;2.57;92.30;98374.69;103536;1314;25836;-25
2021/12/29 10:56:31;;;;;;;20.80;8.70;;;;;;;2.69;92.27;98368.25;103749;1316;23876;-26
2021/12/29 10:58:57;;;;;;;16.90;7.70;;;;;;;2.63;91.09;98363.27;103736;1314;24251;-30
2021/12/29 11:01:23;;;;;;;79.90;28.60;;;;;;;2.69;91.84;98358.84;103691;1314;24186;-30
2021/12/29 11:03:51;;;;;;;100.80;47.00;;;;;;;2.72;91.17;98352.30;103637;1311;24197;-29
2021/12/29 11:06:19;;;;;;;327.80;74.10;;;;;;;2.95;92.54;98358.45;103679;1316;24121;-30
2021/12/29 11:08:49;;;;;;;329.20;63.10;;;;;;;3.18;92.39;98358.96;103684;1310;24261;-30
2021/12/29 11:11:15;;;;;;;58.10;17.10;;;;;;;3.40;92.73;98360.89;103734;1314;22439;-29
2021/12/29 11:13:41;;;;;;;238.80;60.80;;;;;;;3.48;92.34;98364.58;103669;1312;24309;-26
2021/12/29 11:16:09;;;;;;;281.90;121.30;;;;;;;3.61;92.29;98369.83;103640;1305;24369;-26
2021/12/29 11:18:39;;;;;;;249.20;48.70;;;;;;;3.79;92.16;98366.16;103728;1314;24136;-26
2021/12/29 11:21:05;;;;;;;288.70;67.50;;;;;;;3.82;88.94;98365.54;103699;1308;24233;-30
2021/12/29 11:23:31;;;;;;;62.10;18.10;;;;;;;3.97;90.50;98365.73;103677;1314;24122;-26
2021/12/29 11:26:00;;;;;;;21.30;11.10;;;;;;;4.00;90.95;98366.17;103659;1305;22456;-30
2021/12/29 11:28:28;;;;;;;21.70;12.80;;;;;;;4.02;91.22;98366.83;103682;1310;24355;-27
2021/12/29 11:30:55;;;;;;;32.60;14.10;;;;;;;3.96;91.43;98368.31;103762;1299;22575;-30
2021/12/29 11:33:20;;;;;;;28.60;12.50;;;;;;;3.92;91.38;98372.20;103678;1312;24429;-30
2021/12/29 11:35:50;;;;;;;67.40;24.40;;;;;;;3.88;90.76;98379.61;103726;1313;24151;-26